Time;durP1;ratioP1;P1;durP2;ratioP2;P2;SDS_P1;SDS_P2;PMS_P1;PMS_P2;Temp;Humidity;BMP_temperature;BMP_pressure;BME280_temperature;BME280_humidity;BME280_pressure;Samples;Min_cycle;Max_cycle;Signal;HPM_P1;HPM_P2
2021/08/29 00:00:22;;;;;;;;;;;;;;;15.18;100.00;99362.09;5007870;28;19914;-78
2021/08/29 00:02:47;;;;;;;;;;;;;;;14.97;100.00;99367.31;5012408;28;19944;-78
2021/08/29 00:05:12;;;;;;;;;;;;;;;15.02;100.00;99362.78;5011673;28;19920;-78
2021/08/29 00:07:38;;;;;;;;;;;;;;;15.08;100.00;99366.03;5013913;28;19918;-78
2021/08/29 00:10:04;;;;;;;;;;;;;;;15.10;100.00;99362.44;5003528;28;20282;-77
2021/08/29 00:12:29;;;;;;;;;;;;;;;15.05;100.00;99359.19;5012053;28;19922;-78
2021/08/29 00:14:54;;;;;;;;;;;;;;;15.08;100.00;99360.84;4996180;28;19973;-78
2021/08/29 00:17:20;;;;;;;;;;;;;;;14.90;100.00;99358.13;5023658;28;19918;-77
2021/08/29 00:19:45;;;;;;;;;;;;;;;14.72;100.00;99364.97;5018093;28;19921;-78
2021/08/29 00:22:11;;;;;;;;;;;;;;;14.89;100.00;99358.19;4997908;28;19921;-78
2021/08/29 00:24:36;;;;;;;;;;;;;;;14.95;100.00;99358.78;5012498;28;19925;-77
2021/08/29 00:27:02;;;;;;;;;;;;;;;15.22;100.00;99358.47;5012175;28;19949;-77
2021/08/29 00:29:27;;;;;;;;;;;;;;;14.95;100.00;99353.59;5020062;28;19918;-78
2021/08/29 00:31:52;;;;;;;;;;;;;;;14.92;100.00;99353.72;5010886;28;19936;-78
2021/08/29 00:34:17;;;;;;;;;;;;;;;14.90;100.00;99350.34;5010645;28;20338;-78
2021/08/29 00:36:43;;;;;;;;;;;;;;;15.02;100.00;99351.56;5012767;28;19917;-79
2021/08/29 00:39:08;;;;;;;;;;;;;;;15.12;100.00;99351.97;5012500;28;20009;-78
2021/08/29 00:41:34;;;;;;;;;;;;;;;14.92;100.00;99339.94;5015525;28;19945;-78
2021/08/29 00:44:00;;;;;;;;;;;;;;;14.73;100.00;99347.66;5018884;28;20401;-79
2021/08/29 00:46:26;;;;;;;;;;;;;;;14.85;100.00;99344.53;5013618;28;19917;-78
2021/08/29 00:48:55;;;;;;;;;;;;;;;15.10;100.00;99346.03;5011682;28;20001;-79
2021/08/29 00:51:20;;;;;;;;;;;;;;;14.82;100.00;99344.66;5011662;28;19913;-78
2021/08/29 00:53:47;;;;;;;;;;;;;;;14.85;100.00;99344.53;5010545;28;20397;-79
2021/08/29 00:56:12;;;;;;;;;;;;;;;14.84;100.00;99340.25;5010361;28;19925;-78
2021/08/29 00:58:38;;;;;;;;;;;;;;;14.76;100.00;99339.75;4996031;28;19914;-79
2021/08/29 01:01:03;;;;;;;;;;;;;;;14.70;100.00;99337.44;5011835;28;19914;-79
2021/08/29 01:03:28;;;;;;;;;;;;;;;14.80;100.00;99342.16;5010699;28;19913;-78
2021/08/29 01:05:59;;;;;;;;;;;;;;;14.71;100.00;99332.19;5013092;28;19910;-78
2021/08/29 01:08:25;;;;;;;;;;;;;;;14.64;100.00;99336.78;5010919;28;20013;-78
2021/08/29 01:10:54;;;;;;;;;;;;;;;14.73;100.00;99339.88;5010599;28;19949;-78
2021/08/29 01:13:27;;;;;;;;;;;;;;;14.81;100.00;99337.81;5010190;28;19922;-78
2021/08/29 01:16:03;;;;;;;;;;;;;;;14.64;100.00;99331.59;4995125;28;20270;-78
2021/08/29 01:18:28;;;;;;;;;;;;;;;14.83;100.00;99325.63;4995875;28;20021;-78
2021/08/29 01:20:55;;;;;;;;;;;;;;;14.62;100.00;99337.78;5012767;28;20000;-78
2021/08/29 01:23:21;;;;;;;;;;;;;;;14.68;100.00;99331.47;5000922;28;19914;-78
2021/08/29 01:25:48;;;;;;;;;;;;;;;14.59;100.00;99337.88;4995877;28;19929;-79
2021/08/29 01:28:15;;;;;;;;;;;;;;;14.72;100.00;99330.44;4996279;28;20358;-79
2021/08/29 01:30:44;;;;;;;;;;;;;;;14.74;100.00;99336.38;5010517;28;19918;-79
2021/08/29 01:33:09;;;;;;;;;;;;;;;14.90;100.00;99334.81;5026637;28;19913;-79
2021/08/29 01:35:35;;;;;;;;;;;;;;;14.84;100.00;99332.47;5010725;28;19914;-79
2021/08/29 01:38:03;;;;;;;;;;;;;;;14.77;100.00;99337.06;5009463;28;19921;-79
2021/08/29 01:40:29;;;;;;;;;;;;;;;14.91;100.00;99328.69;5011297;28;19917;-79
2021/08/29 01:42:54;;;;;;;;;;;;;;;14.86;100.00;99330.66;5008793;28;20012;-79
2021/08/29 01:45:19;;;;;;;;;;;;;;;14.91;100.00;99333.03;5008874;28;19922;-79
2021/08/29 01:47:45;;;;;;;;;;;;;;;14.88;100.00;99328.00;5000693;28;19920;-79
2021/08/29 01:50:10;;;;;;;;;;;;;;;14.79;100.00;99324.06;5009327;28;19913;-79
2021/08/29 01:52:35;;;;;;;;;;;;;;;14.80;100.00;99330.91;5010018;28;20004;-78
2021/08/29 01:55:00;;;;;;;;;;;;;;;14.83;100.00;99323.84;5009158;28;19918;-78
2021/08/29 01:57:26;;;;;;;;;;;;;;;14.73;100.00;99330.34;5010744;28;19914;-79
2021/08/29 01:59:51;;;;;;;;;;;;;;;14.47;100.00;99334.03;5013420;28;19918;-80
2021/08/29 02:02:17;;;;;;;;;;;;;;;14.83;100.00;99333.38;5010265;28;19953;-80
2021/08/29 02:04:43;;;;;;;;;;;;;;;14.61;100.00;99334.31;4999583;28;19914;-79
2021/08/29 02:07:18;;;;;;;;;;;;;;;14.74;100.00;99332.03;5008831;28;19914;-78
2021/08/29 02:09:44;;;;;;;;;;;;;;;14.80;100.00;99336.09;5009690;28;19959;-79
2021/08/29 02:12:09;;;;;;;;;;;;;;;14.76;100.00;99327.63;5014903;28;20452;-79
2021/08/29 02:14:36;;;;;;;;;;;;;;;14.86;100.00;99330.66;4993978;28;19926;-79
2021/08/29 02:17:01;;;;;;;;;;;;;;;14.94;100.00;99323.38;5008940;28;19920;-79
2021/08/29 02:19:27;;;;;;;;;;;;;;;15.13;100.00;99322.56;5005797;28;20029;-79
2021/08/29 02:21:53;;;;;;;;;;;;;;;14.94;100.00;99314.75;4989523;28;19918;-79
2021/08/29 02:24:21;;;;;;;;;;;;;;;14.90;100.00;99314.06;4990168;28;19920;-79
2021/08/29 02:26:46;;;;;;;;;;;;;;;15.20;100.00;99308.38;5005337;28;20301;-78
2021/08/29 02:29:11;;;;;;;;;;;;;;;14.97;100.00;99302.50;4994568;28;19921;-79
2021/08/29 02:31:37;;;;;;;;;;;;;;;15.27;100.00;99305.44;5005298;28;19914;-79
2021/08/29 02:34:02;;;;;;;;;;;;;;;15.20;100.00;99305.78;5005823;28;19915;-78
2021/08/29 02:36:27;;;;;;;;;;;;;;;15.32;100.00;99305.22;5006362;28;19989;-79
2021/08/29 02:38:53;;;;;;;;;;;;;;;15.10;100.00;99305.38;5005692;28;19919;-79
2021/08/29 02:41:18;;;;;;;;;;;;;;;15.28;100.00;99301.09;5005963;28;20069;-79
2021/08/29 02:43:44;;;;;;;;;;;;;;;14.99;100.00;99305.84;5009402;28;19933;-79
2021/08/29 02:46:12;;;;;;;;;;;;;;;15.12;100.00;99302.69;5009066;28;20009;-79
2021/08/29 02:48:38;;;;;;;;;;;;;;;15.18;100.00;99308.44;5011738;28;19921;-78
2021/08/29 02:51:03;;;;;;;;;;;;;;;15.05;100.00;99304.72;5012703;28;19913;-78
2021/08/29 02:53:28;;;;;;;;;;;;;;;14.94;100.00;99302.63;5014414;28;20258;-79
2021/08/29 02:55:54;;;;;;;;;;;;;;;14.96;100.00;99306.00;5013327;28;19922;-78
2021/08/29 02:58:20;;;;;;;;;;;;;;;15.00;100.00;99302.34;5013615;28;19972;-79
2021/08/29 03:00:46;;;;;;;;;;;;;;;14.86;100.00;99294.34;5013295;28;19914;-79
2021/08/29 03:03:12;;;;;;;;;;;;;;;14.90;100.00;99295.91;4997753;28;19914;-79
2021/08/29 03:05:37;;;;;;;;;;;;;;;15.05;100.00;99299.53;5012129;28;19945;-79
2021/08/29 03:08:02;;;;;;;;;;;;;;;14.69;100.00;99294.25;4998655;28;20393;-79
2021/08/29 03:10:28;;;;;;;;;;;;;;;14.78;100.00;99301.63;5022780;28;19960;-79
2021/08/29 03:12:53;;;;;;;;;;;;;;;14.86;100.00;99296.94;5032291;28;20025;-78
2021/08/29 03:15:18;;;;;;;;;;;;;;;14.90;100.00;99295.91;5032061;28;19921;-79
2021/08/29 03:17:44;;;;;;;;;;;;;;;14.71;100.00;99284.66;5033034;28;20412;-78
2021/08/29 03:20:09;;;;;;;;;;;;;;;14.62;100.00;99285.94;5013608;28;19918;-79
2021/08/29 03:22:35;;;;;;;;;;;;;;;14.79;100.00;99288.59;5013151;28;19925;-79
2021/08/29 03:25:01;;;;;;;;;;;;;;;14.71;100.00;99284.66;5012802;28;19964;-79
2021/08/29 03:27:26;;;;;;;;;;;;;;;14.66;100.00;99291.81;5012812;28;19922;-78
2021/08/29 03:29:52;;;;;;;;;;;;;;;14.95;100.00;99283.56;5013237;28;19918;-79
2021/08/29 03:32:20;;;;;;;;;;;;;;;14.69;100.00;99283.88;5013035;28;19964;-78
2021/08/29 03:34:46;;;;;;;;;;;;;;;14.60;100.00;99273.03;5016579;28;20403;-78
2021/08/29 03:37:11;;;;;;;;;;;;;;;14.58;100.00;99277.44;5017718;28;19957;-79
2021/08/29 03:39:37;;;;;;;;;;;;;;;14.48;100.00;99270.91;5018753;28;20385;-78
2021/08/29 03:42:02;;;;;;;;;;;;;;;14.59;100.00;99276.50;5026589;28;19917;-79
2021/08/29 03:44:28;;;;;;;;;;;;;;;14.57;100.00;99270.59;5015718;28;19914;-79
2021/08/29 03:46:53;;;;;;;;;;;;;;;14.90;100.00;99269.97;4996951;28;19920;-78
2021/08/29 03:49:19;;;;;;;;;;;;;;;14.88;100.00;99270.97;5004786;28;19944;-78
2021/08/29 03:51:45;;;;;;;;;;;;;;;14.86;100.00;99268.41;5008641;28;19925;-79
2021/08/29 03:54:11;;;;;;;;;;;;;;;14.75;100.00;99263.72;5014153;28;20416;-78
2021/08/29 03:56:37;;;;;;;;;;;;;;;14.66;100.00;99266.72;5016961;28;19967;-78
2021/08/29 03:59:02;;;;;;;;;;;;;;;14.59;100.00;99266.13;4998081;28;20416;-78
2021/08/29 04:01:28;;;;;;;;;;;;;;;14.61;100.00;99269.50;5011585;28;19921;-78
2021/08/29 04:03:54;;;;;;;;;;;;;;;14.75;100.00;99266.31;5013722;28;19949;-78
2021/08/29 04:06:19;;;;;;;;;;;;;;;14.49;100.00;99259.66;5012709;28;20471;-79
2021/08/29 04:08:45;;;;;;;;;;;;;;;14.63;100.00;99262.50;5004318;28;19913;-78
2021/08/29 04:11:10;;;;;;;;;;;;;;;14.80;100.00;99260.91;5028255;28;19928;-78
2021/08/29 04:13:36;;;;;;;;;;;;;;;14.79;100.00;99261.84;5019423;28;20004;-78
2021/08/29 04:16:02;;;;;;;;;;;;;;;14.79;100.00;99257.47;5011673;28;19968;-78
2021/08/29 04:18:28;;;;;;;;;;;;;;;14.66;100.00;99253.75;5011608;28;19918;-79
2021/08/29 04:20:53;;;;;;;;;;;;;;;14.82;100.00;99256.50;5008681;28;19914;-78
2021/08/29 04:23:19;;;;;;;;;;;;;;;14.70;100.00;99259.66;4992632;28;19957;-79
2021/08/29 04:25:44;;;;;;;;;;;;;;;15.22;100.00;99249.50;5019767;28;20477;-78
2021/08/29 04:28:10;;;;;;;;;;;;;;;15.08;100.00;99259.69;5013801;28;19913;-79
2021/08/29 04:30:35;;;;;;;;;;;;;;;15.02;100.00;99253.00;4997081;28;19967;-79
2021/08/29 04:33:00;;;;;;;;;;;;;;;14.82;100.00;99246.13;5012073;28;20542;-79
2021/08/29 04:35:25;;;;;;;;;;;;;;;14.80;100.00;99243.63;5029078;28;19913;-79
2021/08/29 04:37:51;;;;;;;;;;;;;;;14.62;100.00;99250.47;5020631;28;19921;-79
2021/08/29 04:40:16;;;;;;;;;;;;;;;14.58;100.00;99248.91;4989409;28;20004;-78
2021/08/29 04:42:42;;;;;;;;;;;;;;;14.69;100.00;99247.59;4998021;28;19914;-79
2021/08/29 04:45:07;;;;;;;;;;;;;;;14.62;100.00;99245.28;5011735;28;19920;-79
2021/08/29 04:47:33;;;;;;;;;;;;;;;14.75;100.00;99249.91;5015685;28;19914;-78
2021/08/29 04:49:58;;;;;;;;;;;;;;;14.76;100.00;99239.47;5011058;28;19914;-78
2021/08/29 04:52:23;;;;;;;;;;;;;;;14.73;100.00;99251.72;5021007;28;19963;-79
2021/08/29 04:54:48;;;;;;;;;;;;;;;14.66;100.00;99255.50;5002622;28;19937;-79
2021/08/29 04:57:14;;;;;;;;;;;;;;;14.61;100.00;99256.56;5012013;28;19917;-80
2021/08/29 04:59:39;;;;;;;;;;;;;;;14.80;100.00;99263.50;4997246;28;19964;-79
2021/08/29 05:02:05;;;;;;;;;;;;;;;14.63;100.00;99257.31;5020579;28;19917;-79
2021/08/29 05:04:30;;;;;;;;;;;;;;;14.78;100.00;99252.34;5013373;28;19918;-79
2021/08/29 05:06:55;;;;;;;;;;;;;;;14.70;100.00;99254.47;5013278;28;19921;-79
2021/08/29 05:09:20;;;;;;;;;;;;;;;14.90;100.00;99259.59;4997861;28;20361;-79
2021/08/29 05:11:46;;;;;;;;;;;;;;;14.78;100.00;99252.34;5004295;28;20008;-80
2021/08/29 05:14:11;;;;;;;;;;;;;;;15.05;100.00;99253.72;5012173;28;19968;-79
2021/08/29 05:16:37;;;;;;;;;;;;;;;14.98;100.00;99256.66;5007800;28;20338;-79
2021/08/29 05:19:02;;;;;;;;;;;;;;;14.67;100.00;99260.63;5023470;28;19977;-79
2021/08/29 05:21:27;;;;;;;;;;;;;;;14.69;100.00;99251.03;5019817;28;19941;-79
2021/08/29 05:23:53;;;;;;;;;;;;;;;14.73;100.00;99252.56;5013286;28;19914;-79
2021/08/29 05:26:18;;;;;;;;;;;;;;;14.77;100.00;99253.28;5011788;28;19996;-79
2021/08/29 05:28:43;;;;;;;;;;;;;;;14.72;100.00;99252.66;5021215;28;19914;-78
2021/08/29 05:31:09;;;;;;;;;;;;;;;14.83;100.00;99253.00;5011263;28;20001;-79
2021/08/29 05:33:34;;;;;;;;;;;;;;;14.55;100.00;99254.25;5014868;28;19941;-79
2021/08/29 05:35:59;;;;;;;;;;;;;;;14.55;100.00;99254.25;5019256;28;19918;-79
2021/08/29 05:38:25;;;;;;;;;;;;;;;14.44;100.00;99256.44;5012688;28;19918;-79
2021/08/29 05:40:50;;;;;;;;;;;;;;;14.46;100.00;99259.81;5013796;28;19914;-79
2021/08/29 05:43:15;;;;;;;;;;;;;;;14.55;100.00;99259.44;5010651;28;19921;-79
2021/08/29 05:45:41;;;;;;;;;;;;;;;14.51;100.00;99265.63;5014547;28;20357;-79
2021/08/29 05:48:06;;;;;;;;;;;;;;;14.83;100.00;99263.38;5008960;28;19914;-79
2021/08/29 05:50:31;;;;;;;;;;;;;;;14.90;100.00;99269.97;4991125;28;19902;-79
2021/08/29 05:52:57;;;;;;;;;;;;;;;15.05;100.00;99264.09;5004506;28;20286;-80
2021/08/29 05:55:22;;;;;;;;;;;;;;;14.96;100.00;99267.09;5011270;28;19952;-79
2021/08/29 05:57:48;;;;;;;;;;;;;;;15.00;100.00;99265.19;5016669;28;19989;-79
2021/08/29 06:00:13;;;;;;;;;;;;;;;14.96;100.00;99263.66;5013757;28;19924;-80
2021/08/29 06:02:38;;;;;;;;;;;;;;;14.97;100.00;99258.41;5011073;28;20003;-79
2021/08/29 06:05:04;;;;;;;;;;;;;;;15.06;100.00;99263.16;5010866;28;20013;-79
2021/08/29 06:07:29;;;;;;;;;;;;;;;15.14;100.00;99256.78;5001630;28;19913;-79
2021/08/29 06:09:55;;;;;;;;;;;;;;;14.76;100.00;99255.03;5010980;28;19914;-78
2021/08/29 06:12:20;;;;;;;;;;;;;;;14.88;100.00;99252.81;5010995;28;19924;-79
2021/08/29 06:14:45;;;;;;;;;;;;;;;14.85;100.00;99253.78;5010434;28;19922;-79
2021/08/29 06:17:11;;;;;;;;;;;;;;;14.81;100.00;99253.06;5003610;28;19914;-79
2021/08/29 06:19:36;;;;;;;;;;;;;;;14.95;100.00;99256.78;4996309;28;19917;-79
2021/08/29 06:22:01;;;;;;;;;;;;;;;15.02;100.00;99253.84;5009971;28;20370;-78
2021/08/29 06:24:27;;;;;;;;;;;;;;;15.17;100.00;99246.28;5025717;28;19897;-80
2021/08/29 06:26:52;;;;;;;;;;;;;;;14.76;100.00;99251.63;5034243;28;19917;-80
2021/08/29 06:29:18;;;;;;;;;;;;;;;14.88;100.00;99243.25;5029028;28;19925;-79
2021/08/29 06:31:44;;;;;;;;;;;;;;;15.08;100.00;99249.31;5000204;28;19914;-80
2021/08/29 06:34:09;;;;;;;;;;;;;;;15.04;100.00;99246.81;5014706;28;19914;-80
2021/08/29 06:36:35;;;;;;;;;;;;;;;15.09;100.00;99240.59;5014502;28;19964;-79
2021/08/29 06:39:00;;;;;;;;;;;;;;;14.93;100.00;99238.69;5011376;28;19922;-79
2021/08/29 06:41:25;;;;;;;;;;;;;;;14.81;100.00;99234.91;5017613;28;19996;-79
2021/08/29 06:43:51;;;;;;;;;;;;;;;14.73;100.00;99236.19;5010966;28;19923;-80
2021/08/29 06:46:16;;;;;;;;;;;;;;;14.63;100.00;99244.38;5010738;28;19914;-80
2021/08/29 06:48:42;;;;;;;;;;;;;;;14.72;100.00;99239.69;5014420;28;19922;-78
2021/08/29 06:51:07;;;;;;;;;;;;;;;14.64;100.00;99238.28;4998599;28;20385;-79
2021/08/29 06:53:32;;;;;;;;;;;;;;;14.86;100.00;99237.31;4998075;28;19920;-79
2021/08/29 06:55:57;;;;;;;;;;;;;;;14.61;100.00;99233.22;4999258;28;19914;-79
2021/08/29 06:58:23;;;;;;;;;;;;;;;14.62;100.00;99234.94;5016938;28;19901;-78
2021/08/29 07:00:48;;;;;;;;;;;;;;;14.63;100.00;99233.16;5013972;28;19971;-79
2021/08/29 07:03:13;;;;;;;;;;;;;;;14.75;100.00;99235.19;5029098;28;19913;-78
2021/08/29 07:05:39;;;;;;;;;;;;;;;14.75;100.00;99229.16;5002572;28;20443;-79
2021/08/29 07:08:04;;;;;;;;;;;;;;;14.50;100.00;99235.41;5021332;28;19946;-79
2021/08/29 07:10:29;;;;;;;;;;;;;;;14.62;100.00;99239.28;5017868;28;19914;-80
2021/08/29 07:12:55;;;;;;;;;;;;;;;14.68;100.00;99228.59;5011332;28;19928;-79
2021/08/29 07:15:20;;;;;;;;;;;;;;;14.52;100.00;99225.81;5014220;28;19984;-79
2021/08/29 07:17:45;;;;;;;;;;;;;;;14.49;100.00;99232.91;5017606;28;19952;-79
2021/08/29 07:20:11;;;;;;;;;;;;;;;14.45;100.00;99227.00;5016294;28;19929;-79
2021/08/29 07:22:37;;;;;;;;;;;;;;;14.54;100.00;99225.78;5015308;28;19918;-79
2021/08/29 07:25:02;;;;;;;;;;;;;;;14.75;100.00;99229.16;5001083;28;20004;-79
2021/08/29 07:27:27;;;;;;;;;;;;;;;14.59;100.00;99229.84;5014224;28;20059;-78
2021/08/29 07:29:53;;;;;;;;;;;;;;;14.64;100.00;99221.88;5009635;28;20420;-78
2021/08/29 07:32:18;;;;;;;;;;;;;;;14.43;100.00;99218.47;5012567;28;19925;-78
2021/08/29 07:34:44;;;;;;;;;;;;;;;14.68;100.00;99223.41;5010178;28;19926;-78
2021/08/29 07:37:09;;;;;;;;;;;;;;;14.57;100.00;99223.94;5009621;28;20345;-79
2021/08/29 07:39:34;;;;;;;;;;;;;;;14.62;100.00;99228.91;5011574;28;19976;-78
2021/08/29 07:41:59;;;;;;;;;;;;;;;14.59;100.00;99227.25;5008612;28;20405;-78
2021/08/29 07:44:25;;;;;;;;;;;;;;;14.45;100.00;99221.84;5008586;28;19925;-78
2021/08/29 07:46:51;;;;;;;;;;;;;;;14.54;100.00;99226.63;5011034;28;19926;-78
2021/08/29 07:49:17;;;;;;;;;;;;;;;14.57;100.00;99221.34;4995019;28;19921;-79
2021/08/29 07:51:42;;;;;;;;;;;;;;;14.59;100.00;99235.03;5012663;28;19928;-79
2021/08/29 07:54:08;;;;;;;;;;;;;;;14.70;100.00;99231.97;5011502;28;19922;-78
2021/08/29 07:56:33;;;;;;;;;;;;;;;14.74;100.00;99232.69;4993606;28;19953;-78
2021/08/29 07:58:58;;;;;;;;;;;;;;;14.72;100.00;99224.13;5014625;28;19983;-78
2021/08/29 08:01:23;;;;;;;;;;;;;;;14.72;100.00;99221.53;5012159;28;20201;-78
2021/08/29 08:03:49;;;;;;;;;;;;;;;14.78;100.00;99226.44;4994427;28;20576;-78
2021/08/29 08:06:14;;;;;;;;;;;;;;;15.00;100.00;99229.72;5007170;28;20016;-78
2021/08/29 08:08:40;;;;;;;;;;;;;;;14.89;100.00;99224.19;5010534;28;19922;-79
2021/08/29 08:11:06;;;;;;;;;;;;;;;14.77;100.00;99228.19;5015697;28;19925;-79
2021/08/29 08:13:31;;;;;;;;;;;;;;;14.91;100.00;99230.16;5004218;28;19986;-79
2021/08/29 08:15:57;;;;;;;;;;;;;;;14.80;100.00;99227.19;4998073;28;20447;-79
2021/08/29 08:18:22;;;;;;;;;;;;;;;15.02;100.00;99227.06;5014469;28;19922;-80
2021/08/29 08:20:47;;;;;;;;;;;;;;;15.01;100.00;99234.00;5012669;28;19920;-79
2021/08/29 08:23:14;;;;;;;;;;;;;;;14.86;100.00;99232.13;5015529;28;20000;-79
2021/08/29 08:25:40;;;;;;;;;;;;;;;14.77;100.00;99233.38;5016757;28;19920;-79
2021/08/29 08:28:05;;;;;;;;;;;;;;;14.83;100.00;99240.06;5002795;28;19914;-79
2021/08/29 08:30:30;;;;;;;;;;;;;;;14.97;100.00;99236.81;5015450;28;19917;-79
2021/08/29 08:32:56;;;;;;;;;;;;;;;14.83;100.00;99237.47;5015119;28;19941;-79
2021/08/29 08:35:21;;;;;;;;;;;;;;;14.81;100.00;99236.69;5020691;28;19928;-79
2021/08/29 08:37:48;;;;;;;;;;;;;;;14.85;100.00;99238.22;5017678;28;19913;-79
2021/08/29 08:40:13;;;;;;;;;;;;;;;14.64;100.00;99238.28;5017668;28;19925;-79
2021/08/29 08:42:39;;;;;;;;;;;;;;;14.91;100.00;99240.53;5019384;28;19968;-79
2021/08/29 08:45:04;;;;;;;;;;;;;;;14.72;100.00;99240.53;5012991;28;19925;-79
2021/08/29 08:47:30;;;;;;;;;;;;;;;15.21;100.00;99245.19;5013219;28;19913;-79
2021/08/29 08:49:57;;;;;;;;;;;;;;;15.04;100.00;99243.41;5014999;28;19922;-79
2021/08/29 08:52:24;;;;;;;;;;;;;;;15.06;100.00;99237.22;5014249;28;19996;-80
2021/08/29 08:54:49;;;;;;;;;;;;;;;14.98;100.00;99234.13;4997571;28;20445;-80
2021/08/29 08:57:18;;;;;;;;;;;;;;;15.15;100.00;99238.56;5011901;28;19961;-80
2021/08/29 08:59:44;;;;;;;;;;;;;;;15.02;100.00;99246.06;5012202;28;20305;-79
2021/08/29 09:02:09;;;;;;;;;;;;;;;14.75;100.00;99244.72;5013145;28;19921;-80
2021/08/29 09:04:35;;;;;;;;;;;;;;;15.19;100.00;99239.22;5012874;28;19928;-80
2021/08/29 09:07:00;;;;;;;;;;;;;;;15.24;100.00;99237.28;5012975;28;19961;-80
2021/08/29 09:09:26;;;;;;;;;;;;;;;15.41;100.00;99239.06;5013096;28;19921;-80
2021/08/29 09:11:51;;;;;;;;;;;;;;;15.23;100.00;99235.59;5014054;28;19925;-81
2021/08/29 09:14:16;;;;;;;;;;;;;;;15.04;100.00;99236.44;4998405;28;19941;-80
2021/08/29 09:16:43;;;;;;;;;;;;;;;15.52;100.00;99230.78;5013398;28;19918;-80
2021/08/29 09:19:09;;;;;;;;;;;;;;;15.47;100.00;99229.22;5013644;28;19924;-80
2021/08/29 09:21:35;;;;;;;;;;;;;;;15.27;100.00;99234.53;5012748;28;19918;-80
2021/08/29 09:24:02;;;;;;;;;;;;;;;15.18;100.00;99230.63;5012773;28;19917;-80
2021/08/29 09:26:28;;;;;;;;;;;;;;;15.33;100.00;99234.25;5011932;28;19993;-80
2021/08/29 09:28:57;;;;;;;;;;;;;;;15.38;100.00;99236.63;5012180;28;20012;-79
2021/08/29 09:31:23;;;;;;;;;;;;;;;15.32;100.00;99229.97;5012200;28;19921;-79
2021/08/29 09:34:01;;;;;;;;;;;;;;;15.46;100.00;99224.97;5012692;28;19914;-79
2021/08/29 09:36:29;;;;;;;;;;;;;;;15.38;100.00;99223.66;5013075;28;19967;-82
2021/08/29 09:38:54;;;;;;;;;;;;;;;15.54;100.00;99229.78;5018089;28;19979;-82
2021/08/29 09:41:22;;;;;;;;;;;;;;;15.38;100.00;99226.25;5021976;28;19921;-82
2021/08/29 09:43:48;;;;;;;;;;;;;;;15.52;100.00;99230.78;4998718;28;19924;-82
2021/08/29 09:46:13;;;;;;;;;;;;;;;15.43;100.00;99222.50;5018551;28;19917;-82
2021/08/29 09:48:38;;;;;;;;;;;;;;;15.74;100.00;99226.25;5021992;28;20693;-81
2021/08/29 09:51:04;;;;;;;;;;;;;;;15.66;100.00;99217.94;5019266;28;19969;-82
2021/08/29 09:53:29;;;;;;;;;;;;;;;15.88;100.00;99218.59;5016388;28;19928;-81
2021/08/29 09:55:54;;;;;;;;;;;;;;;15.67;100.00;99215.28;5013736;28;19925;-82
2021/08/29 09:58:27;;;;;;;;;;;;;;;15.74;100.00;99213.25;5016688;28;20400;-83
2021/08/29 10:01:07;;;;;;;;;;;;;;;16.34;100.00;99207.59;5018363;28;19930;-81
2021/08/29 10:03:33;;;;;;;;;;;;;;;16.00;100.00;99201.53;5013228;28;19929;-82
2021/08/29 10:06:17;;;;;;;;;;;;;;;15.86;100.00;99204.00;5016100;28;19922;-80
2021/08/29 10:08:45;;;;;;;;;;;;;;;15.39;100.00;99210.59;5014521;28;20005;-81
2021/08/29 10:11:11;;;;;;;;;;;;;;;15.51;100.00;99209.16;5013898;28;19918;-81
2021/08/29 10:13:37;;;;;;;;;;;;;;;15.83;100.00;99211.97;5001278;28;19930;-83
2021/08/29 10:16:03;;;;;;;;;;;;;;;15.70;100.00;99219.47;5018078;28;20005;-82
2021/08/29 10:18:28;;;;;;;;;;;;;;;15.64;100.00;99214.59;5014826;28;20731;-82
2021/08/29 10:20:53;;;;;;;;;;;;;;;15.95;100.00;99213.09;5016203;28;20266;-82
2021/08/29 10:23:19;;;;;;;;;;;;;;;15.81;100.00;99221.59;5015816;28;19917;-81
2021/08/29 10:25:45;;;;;;;;;;;;;;;15.81;100.00;99219.00;5011607;28;20008;-81
2021/08/29 10:28:11;;;;;;;;;;;;;;;15.91;100.00;99216.75;5015109;28;19917;-81
2021/08/29 10:30:37;;;;;;;;;;;;;;;15.71;100.00;99215.97;5012989;28;20289;-81
2021/08/29 10:33:03;;;;;;;;;;;;;;;15.85;100.00;99218.75;5013346;28;19928;-81
2021/08/29 10:35:29;;;;;;;;;;;;;;;15.54;100.00;99219.38;5014901;28;20400;-80
2021/08/29 10:37:54;;;;;;;;;;;;;;;15.86;100.00;99217.81;5012883;28;19917;-81
2021/08/29 10:40:19;;;;;;;;;;;;;;;15.73;100.00;99224.53;5015359;28;20255;-82
2021/08/29 10:42:45;;;;;;;;;;;;;;;16.20;100.00;99220.47;5010449;28;19914;-81
2021/08/29 10:45:11;;;;;;;;;;;;;;;15.92;100.00;99213.22;5010835;28;19914;-82
2021/08/29 10:47:40;;;;;;;;;;;;;;;16.24;100.00;99217.63;5020904;28;20227;-81
2021/08/29 10:50:09;;;;;;;;;;;;;;;16.74;100.00;99213.28;5008984;28;19917;-81
2021/08/29 10:52:35;;;;;;;;;;;;;;;16.55;100.00;99213.41;5017175;28;19918;-79
2021/08/29 10:55:02;;;;;;;;;;;;;;;16.05;100.00;99209.09;4998882;28;20416;-79
2021/08/29 10:57:31;;;;;;;;;;;;;;;16.45;100.00;99214.84;5013701;28;19920;-79
2021/08/29 11:00:02;;;;;;;;;;;;;;;16.43;100.00;99208.88;4993676;28;20345;-79
2021/08/29 11:02:34;;;;;;;;;;;;;;;16.09;100.00;99211.47;4993746;28;19914;-79
2021/08/29 11:04:59;;;;;;;;;;;;;;;15.89;100.00;99209.03;5013266;28;19913;-80
2021/08/29 11:07:38;;;;;;;;;;;;;;;15.88;100.00;99208.19;5008724;28;19918;-82
2021/08/29 11:10:03;;;;;;;;;;;;;;;15.81;100.00;99214.63;5012616;28;19921;-81
2021/08/29 11:12:29;;;;;;;;;;;;;;;15.79;100.00;99219.06;4995094;28;19928;-80
2021/08/29 11:14:56;;;;;;;;;;;;;;;15.95;100.00;99213.94;5014008;28;20005;-81
2021/08/29 11:17:22;;;;;;;;;;;;;;;15.74;100.00;99215.03;5023874;28;20016;-81
2021/08/29 11:19:49;;;;;;;;;;;;;;;15.98;100.00;99231.94;5012490;28;20368;-81
2021/08/29 11:22:15;;;;;;;;;;;;;;;16.27;100.00;99230.47;5015125;28;20297;-81
2021/08/29 11:24:51;;;;;;;;;;;;;;;16.19;100.00;99227.41;5012603;28;19920;-81
2021/08/29 11:27:37;;;;;;;;;;;;;;;16.21;100.00;99227.34;5013365;28;19914;-81
2021/08/29 11:30:10;;;;;;;;;;;;;;;16.26;100.00;99226.19;5012741;28;19914;-81
2021/08/29 11:32:39;;;;;;;;;;;;;;;16.55;100.00;99222.97;5012173;28;19940;-81
2021/08/29 11:35:05;;;;;;;;;;;;;;;16.64;100.00;99223.31;5013926;28;19944;-80
2021/08/29 11:37:30;;;;;;;;;;;;;;;16.76;100.00;99215.78;5030909;28;19918;-81
2021/08/29 11:40:05;;;;;;;;;;;;;;;16.75;100.00;99209.75;5010985;28;19913;-81
2021/08/29 11:42:31;;;;;;;;;;;;;;;16.60;100.00;99206.19;5011241;28;19921;-81
2021/08/29 11:44:56;;;;;;;;;;;;;;;16.72;100.00;99213.38;5011500;28;19914;-81
2021/08/29 11:47:22;;;;;;;;;;;;;;;16.97;100.00;99209.47;5012855;28;19918;-80
2021/08/29 11:49:54;;;;;;;;;;;;;;;17.17;100.00;99199.69;5011545;28;19917;-81
2021/08/29 11:52:26;;;;;;;;;;;;;;;17.22;100.00;99213.28;5013007;28;19914;-81
2021/08/29 11:55:21;;;;;;;;;;;;;;;16.83;100.00;99201.56;5009868;28;19921;-82
2021/08/29 11:57:51;;;;;;;;;;;;;;;17.38;100.00;99198.50;5015510;28;19964;-79
2021/08/29 12:00:17;;;;;;;;;;;;;;;17.69;100.00;99197.56;5014551;28;19917;-79
2021/08/29 12:02:43;;;;;;;;;;;;;;;17.32;100.00;99189.28;5014676;28;19922;-79
2021/08/29 12:05:12;;;;;;;;;;;;;;;17.27;100.00;99185.25;5016828;28;19924;-78
2021/08/29 12:07:38;;;;;;;;;;;;;;;16.67;100.00;99202.38;5011302;28;20289;-78
2021/08/29 12:10:07;;;;;;;;;;;;;;;16.86;100.00;99202.25;5014921;28;19924;-78
2021/08/29 12:12:33;;;;;;;;;;;;;;;16.81;100.00;99198.19;5015298;28;19926;-79
2021/08/29 12:14:59;;;;;;;;;;;;;;;17.06;100.00;99203.75;5013136;28;19991;-79
2021/08/29 12:17:25;;;;;;;;;;;;;;;16.91;100.00;99202.00;5000957;28;20890;-78
2021/08/29 12:19:51;;;;;;;;;;;;;;;16.97;100.00;99193.84;5014733;28;19917;-79
2021/08/29 12:22:16;;;;;;;;;;;;;;;17.48;100.00;99186.63;5016428;28;19917;-78
2021/08/29 12:24:42;;;;;;;;;;;;;;;17.33;100.00;99188.34;5015473;28;19924;-78
2021/08/29 12:27:09;;;;;;;;;;;;;;;17.54;100.00;99188.06;5019360;28;19922;-78
2021/08/29 12:30:01;;;;;;;;;;;;;;;16.65;100.00;99193.81;5012065;28;20023;-78